Language: 


Des rapports , des résumés tant et plus, au choix de chacun....


Données Historiques de Météogheer
Journalier Rapport pour Février 8, 2018 Unitée:  Les deux    Impériale   Métrique
Suivant Jour »
Journalier Hebdomadaire Mensuel Annuel Sur mesure
  Max: Min: Moyenne:
Température: 46.8 °F /  8.2 °C 27.1 °F /  -2.7 °C 35.2 °F /  1.8 °C
Point de rosée: 37.4 °F /  3.0 °C 21.2 °F /  -6.0 °C 29.1 °F /  -1.6 °C
Humidité: 92% 53% 81%
Vent: 10.3mph /  16.6km/h - 2.3mph /  3.7km/h
Rafales: 10.3mph /  16.6km/h - -
Vent- - SW
Pression: 30.1 in /  1019.9 hPa 30 in /  1015.1 hPa -
Pluie: 0 in /  0.0 mm    
Historical Graphs
 
 
Données tabulaires pour Février 8, 2018
Heure Température Point de rosée Pression Vent Vent Rafales Humidité Pluie Taux (Horaire) Conditions
00:00 28.4 °F /  -2.0 °C 21.2 °F /  -6.0 °C 30.1in /  1018.8hPa Calm     81% 0in /  0.0mm
00:05 28 °F /  -2.2 °C 21.2 °F /  -6.0 °C 30.1in /  1018.8hPa Calm     81% 0in /  0.0mm
00:10 28 °F /  -2.2 °C 21.2 °F /  -6.0 °C 30.1in /  1018.8hPa Calm     81% 0in /  0.0mm
00:15 28.2 °F /  -2.1 °C 23 °F /  -5.0 °C 30.1in /  1018.8hPa Calm     82% 0in /  0.0mm
00:20 28.2 °F /  -2.1 °C 23 °F /  -5.0 °C 30.1in /  1018.8hPa Calm     83% 0in /  0.0mm
00:25 28.2 °F /  -2.1 °C 23 °F /  -5.0 °C 30.1in /  1018.8hPa Calm     83% 0in /  0.0mm
00:30 28.4 °F /  -2.0 °C 23 °F /  -5.0 °C 30.1in /  1018.8hPa Calm     83% 0in /  0.0mm
00:35 28.6 °F /  -1.9 °C 23 °F /  -5.0 °C 30.1in /  1018.8hPa Calm     83% 0in /  0.0mm
00:40 28.6 °F /  -1.9 °C 23 °F /  -5.0 °C 30.1in /  1018.8hPa Calm     83% 0in /  0.0mm
00:46 28.4 °F /  -2.0 °C 23 °F /  -5.0 °C 30.1in /  1018.8hPa Calm     83% 0in /  0.0mm
00:51 28.2 °F /  -2.1 °C 23 °F /  -5.0 °C 30.1in /  1018.8hPa Calm     83% 0in /  0.0mm
00:56 27.9 °F /  -2.3 °C 21.2 °F /  -6.0 °C 30.1in /  1018.8hPa Calm     83% 0in /  0.0mm
01:01 27.7 °F /  -2.4 °C 21.2 °F /  -6.0 °C 30.1in /  1018.8hPa Calm     83% 0in /  0.0mm
01:06 27.5 °F /  -2.5 °C 21.2 °F /  -6.0 °C 30.1in /  1018.8hPa Calm     83% 0in /  0.0mm
01:11 27.5 °F /  -2.5 °C 21.2 °F /  -6.0 °C 30.1in /  1018.8hPa Calm     84% 0in /  0.0mm
01:16 27.5 °F /  -2.5 °C 21.2 °F /  -6.0 °C 30.1in /  1018.8hPa Calm     84% 0in /  0.0mm
01:21 27.3 °F /  -2.6 °C 23 °F /  -5.0 °C 30.1in /  1018.8hPa Calm     85% 0in /  0.0mm
01:26 27.3 °F /  -2.6 °C 23 °F /  -5.0 °C 30.1in /  1018.8hPa Calm     85% 0in /  0.0mm
01:31 27.1 °F /  -2.7 °C 23 °F /  -5.0 °C 30.1in /  1018.8hPa Calm     85% 0in /  0.0mm
01:36 27.3 °F /  -2.6 °C 23 °F /  -5.0 °C 30.1in /  1018.8hPa Calm     86% 0in /  0.0mm
01:41 27.5 °F /  -2.5 °C 23 °F /  -5.0 °C 30.1in /  1018.8hPa Calm     86% 0in /  0.0mm
01:46 27.7 °F /  -2.4 °C 23 °F /  -5.0 °C 30.1in /  1018.8hPa West 1.6mph /  2.6km/h 1.6mph /  2.6km/h 86% 0in /  0.0mm
01:51 27.7 °F /  -2.4 °C 23 °F /  -5.0 °C 30.1in /  1018.8hPa Calm   1.6mph /  2.6km/h 87% 0in /  0.0mm
01:56 27.7 °F /  -2.4 °C 23 °F /  -5.0 °C 30.1in /  1018.8hPa Calm   1.6mph /  2.6km/h 87% 0in /  0.0mm
02:01 27.7 °F /  -2.4 °C 23 °F /  -5.0 °C 30.1in /  1018.8hPa Calm     87% 0in /  0.0mm
02:06 27.7 °F /  -2.4 °C 23 °F /  -5.0 °C 30.1in /  1018.8hPa Calm     87% 0in /  0.0mm
02:11 27.7 °F /  -2.4 °C 23 °F /  -5.0 °C 30.1in /  1018.8hPa Calm     87% 0in /  0.0mm
02:16 27.5 °F /  -2.5 °C 23 °F /  -5.0 °C 30.1in /  1018.8hPa Calm     87% 0in /  0.0mm
02:21 27.3 °F /  -2.6 °C 23 °F /  -5.0 °C 30.1in /  1018.8hPa Calm     87% 0in /  0.0mm
02:27 27.1 °F /  -2.7 °C 23 °F /  -5.0 °C 30.1in /  1018.8hPa Calm     87% 0in /  0.0mm
02:32 27.1 °F /  -2.7 °C 23 °F /  -5.0 °C 30.1in /  1018.8hPa Calm     87% 0in /  0.0mm
02:37 27.3 °F /  -2.6 °C 23 °F /  -5.0 °C 30.1in /  1018.8hPa Calm     88% 0in /  0.0mm
02:42 27.5 °F /  -2.5 °C 23 °F /  -5.0 °C 30.1in /  1018.8hPa Calm     88% 0in /  0.0mm
02:47 27.9 °F /  -2.3 °C 23 °F /  -5.0 °C 30.1in /  1018.8hPa Calm     89% 0in /  0.0mm
02:52 28 °F /  -2.2 °C 24.8 °F /  -4.0 °C 30.1in /  1018.8hPa Calm     89% 0in /  0.0mm
02:57 28 °F /  -2.2 °C 24.8 °F /  -4.0 °C 30.1in /  1018.8hPa Calm     89% 0in /  0.0mm
03:02 28.2 °F /  -2.1 °C 24.8 °F /  -4.0 °C 30.1in /  1018.8hPa Calm     89% 0in /  0.0mm
03:07 28.2 °F /  -2.1 °C 24.8 °F /  -4.0 °C 30.1in /  1018.8hPa Calm     89% 0in /  0.0mm
03:12 28.2 °F /  -2.1 °C 24.8 °F /  -4.0 °C 30.1in /  1018.8hPa Calm     89% 0in /  0.0mm
03:17 28.2 °F /  -2.1 °C 24.8 °F /  -4.0 °C 30.1in /  1018.8hPa Calm     89% 0in /  0.0mm
03:22 28.2 °F /  -2.1 °C 24.8 °F /  -4.0 °C 30.1in /  1018.8hPa Calm     89% 0in /  0.0mm
03:27 28.2 °F /  -2.1 °C 24.8 °F /  -4.0 °C 30.1in /  1018.8hPa Calm     89% 0in /  0.0mm
03:32 28.2 °F /  -2.1 °C 24.8 °F /  -4.0 °C 30.1in /  1018.2hPa Calm     89% 0in /  0.0mm
03:37 28.2 °F /  -2.1 °C 24.8 °F /  -4.0 °C 30.1in /  1018.2hPa Calm     89% 0in /  0.0mm
03:42 28.4 °F /  -2.0 °C 24.8 °F /  -4.0 °C 30.1in /  1018.2hPa Calm   2.2mph /  3.5km/h 89% 0in /  0.0mm
03:47 28.4 °F /  -2.0 °C 24.8 °F /  -4.0 °C 30.1in /  1018.8hPa Calm   2.2mph /  3.5km/h 90% 0in /  0.0mm
03:52 28.2 °F /  -2.1 °C 24.8 °F /  -4.0 °C 30.1in /  1018.8hPa Calm     90% 0in /  0.0mm
03:57 28 °F /  -2.2 °C 24.8 °F /  -4.0 °C 30.1in /  1018.8hPa Calm     89% 0in /  0.0mm
04:02 28 °F /  -2.2 °C 24.8 °F /  -4.0 °C 30.1in /  1018.2hPa Calm     89% 0in /  0.0mm
04:07 28 °F /  -2.2 °C 24.8 °F /  -4.0 °C 30.1in /  1018.2hPa Calm     89% 0in /  0.0mm
04:12 28 °F /  -2.2 °C 24.8 °F /  -4.0 °C 30.1in /  1018.2hPa Calm     90% 0in /  0.0mm
04:17 27.9 °F /  -2.3 °C 23 °F /  -5.0 °C 30.1in /  1018.8hPa Calm     90% 0in /  0.0mm
04:22 27.9 °F /  -2.3 °C 23 °F /  -5.0 °C 30.1in /  1018.8hPa Calm     90% 0in /  0.0mm
04:27 27.9 °F /  -2.3 °C 23 °F /  -5.0 °C 30.1in /  1018.8hPa Calm     90% 0in /  0.0mm
04:32 27.9 °F /  -2.3 °C 23 °F /  -5.0 °C 30.1in /  1018.8hPa Calm     90% 0in /  0.0mm
04:37 28 °F /  -2.2 °C 24.8 °F /  -4.0 °C 30.1in /  1018.8hPa Calm     90% 0in /  0.0mm
04:42 28.2 °F /  -2.1 °C 24.8 °F /  -4.0 °C 30.1in /  1018.8hPa Calm   1.6mph /  2.6km/h 91% 0in /  0.0mm
04:48 28.6 °F /  -1.9 °C 24.8 °F /  -4.0 °C 30.1in /  1018.8hPa Calm   1.6mph /  2.6km/h 91% 0in /  0.0mm
04:53 28.8 °F /  -1.8 °C 26.6 °F /  -3.0 °C 30.1in /  1018.8hPa Calm   1.3mph /  2.1km/h 92% 0in /  0.0mm
04:58 28.9 °F /  -1.7 °C 26.6 °F /  -3.0 °C 30.1in /  1018.8hPa Calm     92% 0in /  0.0mm
05:03 28.9 °F /  -1.7 °C 26.6 °F /  -3.0 °C 30.1in /  1018.8hPa Calm   1.3mph /  2.1km/h 92% 0in /  0.0mm
05:08 29.1 °F /  -1.6 °C 26.6 °F /  -3.0 °C 30.1in /  1018.8hPa Calm   1.3mph /  2.1km/h 92% 0in /  0.0mm
05:13 29.1 °F /  -1.6 °C 26.6 °F /  -3.0 °C 30.1in /  1018.8hPa Calm     92% 0in /  0.0mm
05:18 29.3 °F /  -1.5 °C 26.6 °F /  -3.0 °C 30.1in /  1018.8hPa Calm     91% 0in /  0.0mm
05:23 29.5 °F /  -1.4 °C 26.6 °F /  -3.0 °C 30.1in /  1018.8hPa Calm   1.1mph /  1.8km/h 91% 0in /  0.0mm
05:28 29.5 °F /  -1.4 °C 26.6 °F /  -3.0 °C 30.1in /  1018.8hPa Calm   1.1mph /  1.8km/h 92% 0in /  0.0mm
05:33 29.7 °F /  -1.3 °C 26.6 °F /  -3.0 °C 30.1in /  1019.9hPa Calm     92% 0in /  0.0mm
05:38 29.8 °F /  -1.2 °C 26.6 °F /  -3.0 °C 30.1in /  1019.9hPa Calm     92% 0in /  0.0mm
05:43 29.8 °F /  -1.2 °C 26.6 °F /  -3.0 °C 30.1in /  1019.9hPa Calm     92% 0in /  0.0mm
05:48 29.8 °F /  -1.2 °C 26.6 °F /  -3.0 °C 30.1in /  1018.8hPa Calm     91% 0in /  0.0mm
05:53 30 °F /  -1.1 °C 26.6 °F /  -3.0 °C 30.1in /  1018.8hPa Calm     91% 0in /  0.0mm
05:58 30.2 °F /  -1.0 °C 26.6 °F /  -3.0 °C 30.1in /  1018.8hPa Calm     91% 0in /  0.0mm
06:03 30.2 °F /  -1.0 °C 26.6 °F /  -3.0 °C 30.1in /  1018.8hPa Calm     91% 0in /  0.0mm
06:08 30.2 °F /  -1.0 °C 26.6 °F /  -3.0 °C 30.1in /  1018.8hPa Calm     91% 0in /  0.0mm
06:13 30.4 °F /  -0.9 °C 26.6 °F /  -3.0 °C 30.1in /  1018.8hPa Calm   1.3mph /  2.1km/h 91% 0in /  0.0mm
06:18 30.4 °F /  -0.9 °C 26.6 °F /  -3.0 °C 30.1in /  1018.8hPa Calm   1.3mph /  2.1km/h 91% 0in /  0.0mm
06:23 30.6 °F /  -0.8 °C 26.6 °F /  -3.0 °C 30.1in /  1018.8hPa Calm     90% 0in /  0.0mm
06:29 30.6 °F /  -0.8 °C 26.6 °F /  -3.0 °C 30.1in /  1018.8hPa Calm     90% 0in /  0.0mm
06:34 30.7 °F /  -0.7 °C 26.6 °F /  -3.0 °C 30.1in /  1018.8hPa Calm     90% 0in /  0.0mm
06:39 30.7 °F /  -0.7 °C 26.6 °F /  -3.0 °C 30.1in /  1018.8hPa Calm     90% 0in /  0.0mm
06:44 30.9 °F /  -0.6 °C 26.6 °F /  -3.0 °C 30.1in /  1018.8hPa Calm     90% 0in /  0.0mm
06:49 30.9 °F /  -0.6 °C 26.6 °F /  -3.0 °C 30.1in /  1018.8hPa Calm     90% 0in /  0.0mm
06:54 30.9 °F /  -0.6 °C 26.6 °F /  -3.0 °C 30.1in /  1018.8hPa Calm     90% 0in /  0.0mm
06:59 30.9 °F /  -0.6 °C 26.6 °F /  -3.0 °C 30.1in /  1018.8hPa Calm     90% 0in /  0.0mm
07:04 30.9 °F /  -0.6 °C 26.6 °F /  -3.0 °C 30.1in /  1018.8hPa Calm     90% 0in /  0.0mm
07:09 31.1 °F /  -0.5 °C 26.6 °F /  -3.0 °C 30.1in /  1018.8hPa Calm     90% 0in /  0.0mm
07:14 31.1 °F /  -0.5 °C 26.6 °F /  -3.0 °C 30.1in /  1018.8hPa Calm     90% 0in /  0.0mm
07:19 31.1 °F /  -0.5 °C 26.6 °F /  -3.0 °C 30.1in /  1018.8hPa Calm     90% 0in /  0.0mm
07:24 31.1 °F /  -0.5 °C 26.6 °F /  -3.0 °C 30.1in /  1018.8hPa Calm     90% 0in /  0.0mm
07:29 31.1 °F /  -0.5 °C 26.6 °F /  -3.0 °C 30.1in /  1018.8hPa Calm     90% 0in /  0.0mm
07:34 31.1 °F /  -0.5 °C 26.6 °F /  -3.0 °C 30.1in /  1018.8hPa Calm     90% 0in /  0.0mm
07:39 31.1 °F /  -0.5 °C 26.6 °F /  -3.0 °C 30.1in /  1018.8hPa Calm     90% 0in /  0.0mm
07:44 31.1 °F /  -0.5 °C 26.6 °F /  -3.0 °C 30.1in /  1018.8hPa Calm     90% 0in /  0.0mm
07:49 31.1 °F /  -0.5 °C 26.6 °F /  -3.0 °C 30.1in /  1018.8hPa Calm     90% 0in /  0.0mm
07:54 31.1 °F /  -0.5 °C 26.6 °F /  -3.0 °C 30.1in /  1018.8hPa Calm     90% 0in /  0.0mm
07:59 31.1 °F /  -0.5 °C 26.6 °F /  -3.0 °C 30.1in /  1018.8hPa Calm     90% 0in /  0.0mm
08:04 31.1 °F /  -0.5 °C 26.6 °F /  -3.0 °C 30.1in /  1018.8hPa Calm     90% 0in /  0.0mm
08:09 31.1 °F /  -0.5 °C 26.6 °F /  -3.0 °C 30.1in /  1018.8hPa Calm     90% 0in /  0.0mm
08:15 31.1 °F /  -0.5 °C 26.6 °F /  -3.0 °C 30.1in /  1018.8hPa Calm     90% 0in /  0.0mm
08:20 31.1 °F /  -0.5 °C 26.6 °F /  -3.0 °C 30.1in /  1018.8hPa Calm     90% 0in /  0.0mm
08:25 31.1 °F /  -0.5 °C 26.6 °F /  -3.0 °C 30.1in /  1018.8hPa Calm     89% 0in /  0.0mm
08:30 31.1 °F /  -0.5 °C 26.6 °F /  -3.0 °C 30.1in /  1018.8hPa Calm     89% 0in /  0.0mm
08:35 31.3 °F /  -0.4 °C 26.6 °F /  -3.0 °C 30.1in /  1018.8hPa Calm     89% 0in /  0.0mm
08:40 31.3 °F /  -0.4 °C 26.6 °F /  -3.0 °C 30.1in /  1018.8hPa Calm     89% 0in /  0.0mm
08:45 31.5 °F /  -0.3 °C 26.6 °F /  -3.0 °C 30.1in /  1019.9hPa Calm     89% 0in /  0.0mm
08:50 31.5 °F /  -0.3 °C 26.6 °F /  -3.0 °C 30.1in /  1019.9hPa Calm     89% 0in /  0.0mm
08:55 31.6 °F /  -0.2 °C 28.4 °F /  -2.0 °C 30.1in /  1019.9hPa Calm     89% 0in /  0.0mm
09:00 31.6 °F /  -0.2 °C 28.4 °F /  -2.0 °C 30.1in /  1018.8hPa Calm     89% 0in /  0.0mm
09:05 31.8 °F /  -0.1 °C 28.4 °F /  -2.0 °C 30.1in /  1018.8hPa Calm     89% 0in /  0.0mm
09:10 31.8 °F /  -0.1 °C 28.4 °F /  -2.0 °C 30.1in /  1018.8hPa Calm     89% 0in /  0.0mm
09:15 32 °F /  0.0 °C 28.4 °F /  -2.0 °C 30.1in /  1019.9hPa Calm     89% 0in /  0.0mm
09:20 32 °F /  0.0 °C 28.4 °F /  -2.0 °C 30.1in /  1019.9hPa Calm     89% 0in /  0.0mm
09:25 32.2 °F /  0.1 °C 30.2 °F /  -1.0 °C 30.1in /  1019.9hPa Calm     89% 0in /  0.0mm
09:30 32.2 °F /  0.1 °C 30.2 °F /  -1.0 °C 30.1in /  1019.9hPa Calm     90% 0in /  0.0mm
09:35 32.4 °F /  0.2 °C 30.2 °F /  -1.0 °C 30.1in /  1019.9hPa Calm     90% 0in /  0.0mm
09:40 32.5 °F /  0.3 °C 30.2 °F /  -1.0 °C 30.1in /  1019.9hPa Calm     90% 0in /  0.0mm
09:45 32.9 °F /  0.5 °C 30.2 °F /  -1.0 °C 30.1in /  1019.9hPa Calm     90% 0in /  0.0mm
09:51 33.1 °F /  0.6 °C 30.2 °F /  -1.0 °C 30.1in /  1019.9hPa Calm     90% 0in /  0.0mm
09:56 33.4 °F /  0.8 °C 32 °F /  0.0 °C 30.1in /  1019.9hPa Calm     90% 0in /  0.0mm
10:01 33.8 °F /  1.0 °C 32 °F /  0.0 °C 30.1in /  1019.9hPa Calm     90% 0in /  0.0mm
10:06 34.3 °F /  1.3 °C 32 °F /  0.0 °C 30.1in /  1019.9hPa Calm     91% 0in /  0.0mm
10:11 34.9 °F /  1.6 °C 33.8 °F /  1.0 °C 30.1in /  1019.9hPa WSW 2.9mph /  4.7km/h 2.9mph /  4.7km/h 91% 0in /  0.0mm
10:16 35.4 °F /  1.9 °C 33.8 °F /  1.0 °C 30.1in /  1019.9hPa WSW 2.9mph /  4.7km/h 2.9mph /  4.7km/h 91% 0in /  0.0mm
10:21 35.8 °F /  2.1 °C 33.8 °F /  1.0 °C 30.1in /  1019.9hPa WSW 2.9mph /  4.7km/h 2.9mph /  4.7km/h 90% 0in /  0.0mm
10:26 36.1 °F /  2.3 °C 33.8 °F /  1.0 °C 30.1in /  1019.9hPa WSW 2.9mph /  4.7km/h 2.9mph /  4.7km/h 89% 0in /  0.0mm
10:31 36.7 °F /  2.6 °C 33.8 °F /  1.0 °C 30.1in /  1019.9hPa WSW 2.9mph /  4.7km/h 2.9mph /  4.7km/h 89% 0in /  0.0mm
10:36 37 °F /  2.8 °C 35.6 °F /  2.0 °C 30.1in /  1019.9hPa WSW 2.9mph /  4.7km/h 2.9mph /  4.7km/h 89% 0in /  0.0mm
10:41 37.6 °F /  3.1 °C 33.8 °F /  1.0 °C 30.1in /  1019.9hPa WSW 2.9mph /  4.7km/h 2.9mph /  4.7km/h 88% 0in /  0.0mm
10:46 38.1 °F /  3.4 °C 35.6 °F /  2.0 °C 30.1in /  1019.9hPa WSW 2.9mph /  4.7km/h 2.9mph /  4.7km/h 88% 0in /  0.0mm
10:51 38.7 °F /  3.7 °C 35.6 °F /  2.0 °C 30.1in /  1019.9hPa WSW 2.9mph /  4.7km/h 2.9mph /  4.7km/h 87% 0in /  0.0mm
10:56 39 °F /  3.9 °C 35.6 °F /  2.0 °C 30.1in /  1019.9hPa WSW 2.9mph /  4.7km/h 2.9mph /  4.7km/h 86% 0in /  0.0mm
11:02 39.4 °F /  4.1 °C 35.6 °F /  2.0 °C 30.1in /  1018.8hPa WSW 2.9mph /  4.7km/h 2.9mph /  4.7km/h 84% 0in /  0.0mm
11:07 40.1 °F /  4.5 °C 37.4 °F /  3.0 °C 30.1in /  1018.8hPa WSW 2.9mph /  4.7km/h 2.9mph /  4.7km/h 85% 0in /  0.0mm
11:12 40.5 °F /  4.7 °C 35.6 °F /  2.0 °C 30.1in /  1018.8hPa WSW 2.9mph /  4.7km/h 2.9mph /  4.7km/h 84% 0in /  0.0mm
11:17 40.6 °F /  4.8 °C 35.6 °F /  2.0 °C 30.1in /  1019.9hPa WSW 2.9mph /  4.7km/h 2.9mph /  4.7km/h 83% 0in /  0.0mm
11:22 40.8 °F /  4.9 °C 35.6 °F /  2.0 °C 30.1in /  1019.9hPa WSW 2.9mph /  4.7km/h 2.9mph /  4.7km/h 81% 0in /  0.0mm
11:27 41.2 °F /  5.1 °C 35.6 °F /  2.0 °C 30.1in /  1019.9hPa WSW 2.9mph /  4.7km/h 2.9mph /  4.7km/h 80% 0in /  0.0mm
11:32 41 °F /  5.0 °C 35.6 °F /  2.0 °C 30.1in /  1019.9hPa WSW 2.9mph /  4.7km/h 2.9mph /  4.7km/h 79% 0in /  0.0mm
11:37 41.2 °F /  5.1 °C 35.6 °F /  2.0 °C 30.1in /  1019.9hPa WSW 2.9mph /  4.7km/h 2.9mph /  4.7km/h 79% 0in /  0.0mm
11:42 41.4 °F /  5.2 °C 35.6 °F /  2.0 °C 30.1in /  1019.9hPa WSW 2.9mph /  4.7km/h 2.9mph /  4.7km/h 79% 0in /  0.0mm
11:47 41.4 °F /  5.2 °C 35.6 °F /  2.0 °C 30.1in /  1019.9hPa WSW 2.9mph /  4.7km/h 2.9mph /  4.7km/h 78% 0in /  0.0mm
11:52 41.7 °F /  5.4 °C 35.6 °F /  2.0 °C 30.1in /  1019.9hPa WSW 2.9mph /  4.7km/h 2.9mph /  4.7km/h 77% 0in /  0.0mm
11:57 41.9 °F /  5.5 °C 35.6 °F /  2.0 °C 30.1in /  1019.9hPa WSW 2.9mph /  4.7km/h 2.9mph /  4.7km/h 77% 0in /  0.0mm
12:02 41.7 °F /  5.4 °C 35.6 °F /  2.0 °C 30.1in /  1019.9hPa WSW 2.9mph /  4.7km/h 2.9mph /  4.7km/h 76% 0in /  0.0mm
12:07 41.7 °F /  5.4 °C 35.6 °F /  2.0 °C 30.1in /  1019.9hPa WSW 2.9mph /  4.7km/h 2.9mph /  4.7km/h 76% 0in /  0.0mm
12:12 42.3 °F /  5.7 °C 35.6 °F /  2.0 °C 30.1in /  1019.9hPa WSW 2.9mph /  4.7km/h 2.9mph /  4.7km/h 76% 0in /  0.0mm
12:17 42.4 °F /  5.8 °C 35.6 °F /  2.0 °C 30.1in /  1019.9hPa WSW 2.9mph /  4.7km/h 2.9mph /  4.7km/h 76% 0in /  0.0mm
12:22 43 °F /  6.1 °C 35.6 °F /  2.0 °C 30.1in /  1019.9hPa WSW 2.9mph /  4.7km/h 2.9mph /  4.7km/h 75% 0in /  0.0mm
12:27 43.2 °F /  6.2 °C 37.4 °F /  3.0 °C 30.1in /  1019.9hPa WSW 2.9mph /  4.7km/h 2.9mph /  4.7km/h 75% 0in /  0.0mm
12:32 43.5 °F /  6.4 °C 35.6 °F /  2.0 °C 30.1in /  1019.9hPa WSW 2.9mph /  4.7km/h 2.9mph /  4.7km/h 74% 0in /  0.0mm
12:37 43.7 °F /  6.5 °C 35.6 °F /  2.0 °C 30.1in /  1019.9hPa WSW 2.9mph /  4.7km/h 2.9mph /  4.7km/h 73% 0in /  0.0mm
12:42 43.5 °F /  6.4 °C 35.6 °F /  2.0 °C 30.1in /  1019.9hPa WSW 2.9mph /  4.7km/h 2.9mph /  4.7km/h 72% 0in /  0.0mm
12:47 44.1 °F /  6.7 °C 35.6 °F /  2.0 °C 30.1in /  1019.9hPa WSW 2.9mph /  4.7km/h 2.9mph /  4.7km/h 71% 0in /  0.0mm
12:52 44.2 °F /  6.8 °C 35.6 °F /  2.0 °C 30.1in /  1019.9hPa WSW 2.9mph /  4.7km/h 2.9mph /  4.7km/h 70% 0in /  0.0mm
12:58 44.2 °F /  6.8 °C 33.8 °F /  1.0 °C 30.1in /  1019.9hPa WSW 2.9mph /  4.7km/h 2.9mph /  4.7km/h 69% 0in /  0.0mm
13:03 44.6 °F /  7.0 °C 33.8 °F /  1.0 °C 30.1in /  1019.9hPa WSW 2.9mph /  4.7km/h 2.9mph /  4.7km/h 66% 0in /  0.0mm
13:08 45.1 °F /  7.3 °C 33.8 °F /  1.0 °C 30.1in /  1019.9hPa WSW 2.9mph /  4.7km/h 2.9mph /  4.7km/h 66% 0in /  0.0mm
13:13 45.1 °F /  7.3 °C 33.8 °F /  1.0 °C 30.1in /  1019.9hPa WSW 2.9mph /  4.7km/h 2.9mph /  4.7km/h 62% 0in /  0.0mm
13:18 45.3 °F /  7.4 °C 33.8 °F /  1.0 °C 30.1in /  1018.8hPa WSW 2.9mph /  4.7km/h 2.9mph /  4.7km/h 65% 0in /  0.0mm
13:23 45.1 °F /  7.3 °C 33.8 °F /  1.0 °C 30.1in /  1018.8hPa WSW 2.9mph /  4.7km/h 2.9mph /  4.7km/h 63% 0in /  0.0mm
13:28 45.5 °F /  7.5 °C 33.8 °F /  1.0 °C 30.1in /  1018.8hPa WSW 2.9mph /  4.7km/h 2.9mph /  4.7km/h 62% 0in /  0.0mm
13:33 45.7 °F /  7.6 °C 33.8 °F /  1.0 °C 30.1in /  1018.8hPa WSW 2.9mph /  4.7km/h 2.9mph /  4.7km/h 62% 0in /  0.0mm
13:38 45.9 °F /  7.7 °C 33.8 °F /  1.0 °C 30.1in /  1018.8hPa WSW 2.9mph /  4.7km/h 2.9mph /  4.7km/h 62% 0in /  0.0mm
13:43 46.2 °F /  7.9 °C 33.8 °F /  1.0 °C 30.1in /  1018.8hPa WSW 2.9mph /  4.7km/h 2.9mph /  4.7km/h 61% 0in /  0.0mm
13:48 46.2 °F /  7.9 °C 33.8 °F /  1.0 °C 30.1in /  1018.8hPa WSW 2.9mph /  4.7km/h 2.9mph /  4.7km/h 60% 0in /  0.0mm
13:53 45.7 °F /  7.6 °C 32 °F /  0.0 °C 30.1in /  1018.8hPa WSW 2.9mph /  4.7km/h 2.9mph /  4.7km/h 58% 0in /  0.0mm
13:58 45.7 °F /  7.6 °C 32 °F /  0.0 °C 30.1in /  1018.8hPa WSW 2.9mph /  4.7km/h 2.9mph /  4.7km/h 57% 0in /  0.0mm
14:03 46 °F /  7.8 °C 32 °F /  0.0 °C 30.1in /  1018.8hPa WSW 2.9mph /  4.7km/h 2.9mph /  4.7km/h 58% 0in /  0.0mm
14:06 46.2 °F /  7.9 °C 32 °F /  0.0 °C 30.1in /  1018.8hPa WSW 2.9mph /  4.7km/h 2.9mph /  4.7km/h 58% 0in /  0.0mm
14:11 46 °F /  7.8 °C 32 °F /  0.0 °C 30.1in /  1018.8hPa WSW 2.9mph /  4.7km/h 2.9mph /  4.7km/h 57% 0in /  0.0mm
14:16 46.2 °F /  7.9 °C 32 °F /  0.0 °C 30.1in /  1018.8hPa WSW 2.9mph /  4.7km/h 2.9mph /  4.7km/h 58% 0in /  0.0mm
14:21 46.2 °F /  7.9 °C 32 °F /  0.0 °C 30.1in /  1018.8hPa WSW 2.9mph /  4.7km/h 2.9mph /  4.7km/h 56% 0in /  0.0mm
14:26 46.4 °F /  8.0 °C 32 °F /  0.0 °C 30.1in /  1018.8hPa WSW 2.9mph /  4.7km/h 2.9mph /  4.7km/h 54% 0in /  0.0mm
14:31 46.8 °F /  8.2 °C 32 °F /  0.0 °C 30.1in /  1018.2hPa WSW 2.9mph /  4.7km/h 2.9mph /  4.7km/h 54% 0in /  0.0mm
14:36 45.9 °F /  7.7 °C 30.2 °F /  -1.0 °C 30.1in /  1018.2hPa WSW 2.9mph /  4.7km/h 2.9mph /  4.7km/h 55% 0in /  0.0mm
14:41 45.9 °F /  7.7 °C 30.2 °F /  -1.0 °C 30.1in /  1018.2hPa WSW 2.9mph /  4.7km/h 2.9mph /  4.7km/h 56% 0in /  0.0mm
14:46 46.2 °F /  7.9 °C 32 °F /  0.0 °C 30.1in /  1018.8hPa WSW 2.9mph /  4.7km/h 2.9mph /  4.7km/h 56% 0in /  0.0mm
14:51 45.5 °F /  7.5 °C 30.2 °F /  -1.0 °C 30.1in /  1018.8hPa WSW 2.9mph /  4.7km/h 2.9mph /  4.7km/h 56% 0in /  0.0mm
14:56 44.4 °F /  6.9 °C 30.2 °F /  -1.0 °C 30.1in /  1018.8hPa WSW 2.9mph /  4.7km/h 2.9mph /  4.7km/h 57% 0in /  0.0mm
15:01 44.2 °F /  6.8 °C 32 °F /  0.0 °C 30.1in /  1018.8hPa WSW 2.9mph /  4.7km/h 2.9mph /  4.7km/h 60% 0in /  0.0mm
15:06 45.3 °F /  7.4 °C 32 °F /  0.0 °C 30.1in /  1018.8hPa WSW 2.9mph /  4.7km/h 2.9mph /  4.7km/h 60% 0in /  0.0mm
15:11 46 °F /  7.8 °C 33.8 °F /  1.0 °C 30.1in /  1018.8hPa WSW 2.9mph /  4.7km/h 2.9mph /  4.7km/h 60% 0in /  0.0mm
15:16 46.2 °F /  7.9 °C 32 °F /  0.0 °C 30.1in /  1018.8hPa WSW 2.9mph /  4.7km/h 2.9mph /  4.7km/h 57% 0in /  0.0mm
15:21 46.4 °F /  8.0 °C 32 °F /  0.0 °C 30.1in /  1018.8hPa WSW 2.9mph /  4.7km/h 2.9mph /  4.7km/h 56% 0in /  0.0mm
15:26 46 °F /  7.8 °C 30.2 °F /  -1.0 °C 30.1in /  1018.8hPa WSW 2.9mph /  4.7km/h 2.9mph /  4.7km/h 53% 0in /  0.0mm
15:31 45.3 °F /  7.4 °C 30.2 °F /  -1.0 °C 30.1in /  1018.8hPa WSW 2.9mph /  4.7km/h 2.9mph /  4.7km/h 54% 0in /  0.0mm
15:36 44.8 °F /  7.1 °C 30.2 °F /  -1.0 °C 30.1in /  1018.8hPa WSW 2.9mph /  4.7km/h 2.9mph /  4.7km/h 55% 0in /  0.0mm
15:41 45.1 °F /  7.3 °C 30.2 °F /  -1.0 °C 30.1in /  1018.8hPa WSW 2.9mph /  4.7km/h 2.9mph /  4.7km/h 57% 0in /  0.0mm
15:47 44.6 °F /  7.0 °C 30.2 °F /  -1.0 °C 30.1in /  1018.2hPa WSW 2.9mph /  4.7km/h 2.9mph /  4.7km/h 56% 0in /  0.0mm
15:52 44.1 °F /  6.7 °C 30.2 °F /  -1.0 °C 30.1in /  1018.2hPa WSW 2.9mph /  4.7km/h 2.9mph /  4.7km/h 57% 0in /  0.0mm
15:57 44.2 °F /  6.8 °C 30.2 °F /  -1.0 °C 30.1in /  1018.2hPa WSW 2.9mph /  4.7km/h 2.9mph /  4.7km/h 59% 0in /  0.0mm
16:02 44.6 °F /  7.0 °C 32 °F /  0.0 °C 30.1in /  1018.2hPa WSW 2.9mph /  4.7km/h 2.9mph /  4.7km/h 60% 0in /  0.0mm
16:07 44.8 °F /  7.1 °C 32 °F /  0.0 °C 30.1in /  1018.2hPa WSW 2.9mph /  4.7km/h 2.9mph /  4.7km/h 60% 0in /  0.0mm
16:12 44.6 °F /  7.0 °C 30.2 °F /  -1.0 °C 30.1in /  1018.2hPa WSW 2.9mph /  4.7km/h 2.9mph /  4.7km/h 58% 0in /  0.0mm
16:17 44.2 °F /  6.8 °C 32 °F /  0.0 °C 30.1in /  1018.2hPa WSW 2.9mph /  4.7km/h 2.9mph /  4.7km/h 60% 0in /  0.0mm
16:22 44.1 °F /  6.7 °C 32 °F /  0.0 °C 30.1in /  1018.2hPa WSW 2.9mph /  4.7km/h 2.9mph /  4.7km/h 61% 0in /  0.0mm
16:27 43.5 °F /  6.4 °C 30.2 °F /  -1.0 °C 30.1in /  1018.2hPa WSW 2.9mph /  4.7km/h 2.9mph /  4.7km/h 59% 0in /  0.0mm
16:32 43 °F /  6.1 °C 30.2 °F /  -1.0 °C 30.1in /  1018.2hPa WSW 2.9mph /  4.7km/h 2.9mph /  4.7km/h 60% 0in /  0.0mm
16:38 42.6 °F /  5.9 °C 30.2 °F /  -1.0 °C 30.1in /  1018.2hPa WSW 2.9mph /  4.7km/h 2.9mph /  4.7km/h 62% 0in /  0.0mm
16:43 42.3 °F /  5.7 °C 30.2 °F /  -1.0 °C 30.1in /  1018.2hPa WSW 2.9mph /  4.7km/h 2.9mph /  4.7km/h 62% 0in /  0.0mm
16:48 41.7 °F /  5.4 °C 30.2 °F /  -1.0 °C 30.1in /  1018.2hPa WSW 2.9mph /  4.7km/h 2.9mph /  4.7km/h 62% 0in /  0.0mm
16:53 41.4 °F /  5.2 °C 30.2 °F /  -1.0 °C 30.1in /  1018.2hPa WSW 2.9mph /  4.7km/h 2.9mph /  4.7km/h 63% 0in /  0.0mm
16:58 41 °F /  5.0 °C 30.2 °F /  -1.0 °C 30.1in /  1018.2hPa WSW 2.9mph /  4.7km/h 2.9mph /  4.7km/h 63% 0in /  0.0mm
17:03 40.5 °F /  4.7 °C 30.2 °F /  -1.0 °C 30.1in /  1018.2hPa WSW 2.9mph /  4.7km/h 2.9mph /  4.7km/h 65% 0in /  0.0mm
17:08 40.3 °F /  4.6 °C 30.2 °F /  -1.0 °C 30.1in /  1018.2hPa WSW 2.9mph /  4.7km/h 2.9mph /  4.7km/h 65% 0in /  0.0mm
17:13 39.9 °F /  4.4 °C 30.2 °F /  -1.0 °C 30.1in /  1018.2hPa WSW 2.9mph /  4.7km/h 2.9mph /  4.7km/h 66% 0in /  0.0mm
17:18 39.7 °F /  4.3 °C 30.2 °F /  -1.0 °C 30.1in /  1018.2hPa WSW 2.9mph /  4.7km/h 2.9mph /  4.7km/h 67% 0in /  0.0mm
17:23 39.7 °F /  4.3 °C 30.2 °F /  -1.0 °C 30.1in /  1018.2hPa WSW 2.9mph /  4.7km/h 2.9mph /  4.7km/h 68% 0in /  0.0mm
17:28 39.6 °F /  4.2 °C 30.2 °F /  -1.0 °C 30.1in /  1018.2hPa WSW 2.9mph /  4.7km/h 2.9mph /  4.7km/h 68% 0in /  0.0mm
17:33 39.2 °F /  4.0 °C 30.2 °F /  -1.0 °C 30.1in /  1018.2hPa WSW 2.9mph /  4.7km/h 2.9mph /  4.7km/h 69% 0in /  0.0mm
17:38 39 °F /  3.9 °C 30.2 °F /  -1.0 °C 30.1in /  1018.2hPa WSW 2.9mph /  4.7km/h 2.9mph /  4.7km/h 69% 0in /  0.0mm
17:43 38.7 °F /  3.7 °C 30.2 °F /  -1.0 °C 30.1in /  1018.2hPa WSW 2.9mph /  4.7km/h 2.9mph /  4.7km/h 70% 0in /  0.0mm
17:48 38.5 °F /  3.6 °C 30.2 °F /  -1.0 °C 30.1in /  1018.2hPa WSW 2.9mph /  4.7km/h 2.9mph /  4.7km/h 71% 0in /  0.0mm
17:53 38.5 °F /  3.6 °C 30.2 °F /  -1.0 °C 30.1in /  1018.2hPa WSW 2.9mph /  4.7km/h 2.9mph /  4.7km/h 71% 0in /  0.0mm
17:58 38.3 °F /  3.5 °C 30.2 °F /  -1.0 °C 30.1in /  1018.2hPa WSW 2.9mph /  4.7km/h 2.9mph /  4.7km/h 71% 0in /  0.0mm
18:03 38.1 °F /  3.4 °C 30.2 °F /  -1.0 °C 30.1in /  1018.2hPa SSW 6mph /  9.7km/h 6mph /  9.7km/h 72% 0in /  0.0mm
18:08 38.1 °F /  3.4 °C 30.2 °F /  -1.0 °C 30.1in /  1018.2hPa SSW 6mph /  9.7km/h 6mph /  9.7km/h 72% 0in /  0.0mm
18:13 37.9 °F /  3.3 °C 30.2 °F /  -1.0 °C 30.1in /  1018.2hPa SSW 6mph /  9.7km/h 6mph /  9.7km/h 73% 0in /  0.0mm
18:18 37.8 °F /  3.2 °C 30.2 °F /  -1.0 °C 30.1in /  1018.2hPa SSW 6mph /  9.7km/h 6mph /  9.7km/h 73% 0in /  0.0mm
18:23 37.4 °F /  3.0 °C 30.2 °F /  -1.0 °C 30.1in /  1018.2hPa SSW 6mph /  9.7km/h 6mph /  9.7km/h 73% 0in /  0.0mm
18:29 37.2 °F /  2.9 °C 30.2 °F /  -1.0 °C 30.1in /  1018.2hPa SSW 6mph /  9.7km/h 6mph /  9.7km/h 74% 0in /  0.0mm
18:34 37 °F /  2.8 °C 30.2 °F /  -1.0 °C 30.1in /  1018.2hPa SSW 6mph /  9.7km/h 6mph /  9.7km/h 75% 0in /  0.0mm
18:39 37 °F /  2.8 °C 30.2 °F /  -1.0 °C 30.1in /  1018.2hPa SSW 6mph /  9.7km/h 6mph /  9.7km/h 76% 0in /  0.0mm
18:44 36.9 °F /  2.7 °C 30.2 °F /  -1.0 °C 30.1in /  1018.2hPa SSW 6mph /  9.7km/h 6mph /  9.7km/h 76% 0in /  0.0mm
18:49 36.9 °F /  2.7 °C 30.2 °F /  -1.0 °C 30.1in /  1018.2hPa SSW 6mph /  9.7km/h 6mph /  9.7km/h 77% 0in /  0.0mm
18:54 36.9 °F /  2.7 °C 30.2 °F /  -1.0 °C 30.1in /  1018.2hPa SSW 6mph /  9.7km/h 6mph /  9.7km/h 77% 0in /  0.0mm
18:59 36.7 °F /  2.6 °C 30.2 °F /  -1.0 °C 30.1in /  1018.2hPa SSW 6mph /  9.7km/h 6mph /  9.7km/h 77% 0in /  0.0mm
19:04 36.3 °F /  2.4 °C 30.2 °F /  -1.0 °C 30.1in /  1018.2hPa SSW 6mph /  9.7km/h 6mph /  9.7km/h 78% 0in /  0.0mm
19:09 36.1 °F /  2.3 °C 30.2 °F /  -1.0 °C 30.1in /  1018.2hPa SSW 6mph /  9.7km/h 6mph /  9.7km/h 78% 0in /  0.0mm
19:14 36 °F /  2.2 °C 30.2 °F /  -1.0 °C 30.1in /  1018.2hPa SSW 6mph /  9.7km/h 6mph /  9.7km/h 79% 0in /  0.0mm
19:19 35.8 °F /  2.1 °C 30.2 °F /  -1.0 °C 30.1in /  1018.2hPa SSW 6mph /  9.7km/h 6mph /  9.7km/h 81% 0in /  0.0mm
19:24 35.8 °F /  2.1 °C 30.2 °F /  -1.0 °C 30.1in /  1018.2hPa SSW 6mph /  9.7km/h 6mph /  9.7km/h 81% 0in /  0.0mm
19:29 35.6 °F /  2.0 °C 30.2 °F /  -1.0 °C 30in /  1016.8hPa SSW 6mph /  9.7km/h 6mph /  9.7km/h 81% 0in /  0.0mm
19:34 35.6 °F /  2.0 °C 32 °F /  0.0 °C 30in /  1016.8hPa SSW 4.3mph /  6.9km/h 4.3mph /  6.9km/h 82% 0in /  0.0mm
19:39 35.4 °F /  1.9 °C 30.2 °F /  -1.0 °C 30in /  1016.8hPa SSW 4.3mph /  6.9km/h 4.3mph /  6.9km/h 83% 0in /  0.0mm
19:44 35.4 °F /  1.9 °C 32 °F /  0.0 °C 30.1in /  1018.2hPa SSW 4.3mph /  6.9km/h 4.3mph /  6.9km/h 84% 0in /  0.0mm
19:49 35.6 °F /  2.0 °C 32 °F /  0.0 °C 30.1in /  1018.2hPa SSW 4.3mph /  6.9km/h 4.3mph /  6.9km/h 84% 0in /  0.0mm
19:54 35.4 °F /  1.9 °C 32 °F /  0.0 °C 30.1in /  1018.2hPa SSW 4.3mph /  6.9km/h 4.3mph /  6.9km/h 84% 0in /  0.0mm
19:59 35.4 °F /  1.9 °C 32 °F /  0.0 °C 30in /  1016.8hPa SSW 4.3mph /  6.9km/h 4.3mph /  6.9km/h 84% 0in /  0.0mm
20:04 35.2 °F /  1.8 °C 30.2 °F /  -1.0 °C 30in /  1016.8hPa SSW 4.3mph /  6.9km/h 4.3mph /  6.9km/h 84% 0in /  0.0mm
20:09 35.2 °F /  1.8 °C 30.2 °F /  -1.0 °C 30in /  1016.8hPa SSW 4.3mph /  6.9km/h 4.3mph /  6.9km/h 84% 0in /  0.0mm
20:14 35.1 °F /  1.7 °C 30.2 °F /  -1.0 °C 30in /  1016.8hPa SSW 4.3mph /  6.9km/h 4.3mph /  6.9km/h 84% 0in /  0.0mm
20:19 35.1 °F /  1.7 °C 30.2 °F /  -1.0 °C 30in /  1016.8hPa SSW 4.3mph /  6.9km/h 4.3mph /  6.9km/h 84% 0in /  0.0mm
20:24 35.1 °F /  1.7 °C 30.2 °F /  -1.0 °C 30in /  1016.8hPa SSW 4.3mph /  6.9km/h 4.3mph /  6.9km/h 84% 0in /  0.0mm
20:29 35.1 °F /  1.7 °C 30.2 °F /  -1.0 °C 30in /  1016.8hPa SSW 4.3mph /  6.9km/h 4.3mph /  6.9km/h 84% 0in /  0.0mm
20:35 34.9 °F /  1.6 °C 30.2 °F /  -1.0 °C 30in /  1016.8hPa SSW 4.3mph /  6.9km/h 4.3mph /  6.9km/h 84% 0in /  0.0mm
20:40 34.9 °F /  1.6 °C 32 °F /  0.0 °C 30in /  1016.8hPa SSW 4.3mph /  6.9km/h 4.3mph /  6.9km/h 85% 0in /  0.0mm
20:45 34.9 °F /  1.6 °C 32 °F /  0.0 °C 30in /  1016.8hPa SSW 4.3mph /  6.9km/h 4.3mph /  6.9km/h 85% 0in /  0.0mm
20:50 34.7 °F /  1.5 °C 32 °F /  0.0 °C 30in /  1016.8hPa SSW 4.3mph /  6.9km/h 4.3mph /  6.9km/h 85% 0in /  0.0mm
20:55 34.7 °F /  1.5 °C 32 °F /  0.0 °C 30in /  1016.8hPa SSW 4.3mph /  6.9km/h 4.3mph /  6.9km/h 86% 0in /  0.0mm
21:00 34.7 °F /  1.5 °C 32 °F /  0.0 °C 30in /  1016.8hPa SSW 4.3mph /  6.9km/h 4.3mph /  6.9km/h 86% 0in /  0.0mm
21:05 34.5 °F /  1.4 °C 30.2 °F /  -1.0 °C 30in /  1016.8hPa SSW 4.3mph /  6.9km/h 4.3mph /  6.9km/h 86% 0in /  0.0mm
21:10 34.5 °F /  1.4 °C 30.2 °F /  -1.0 °C 30in /  1016.8hPa SSW 4.3mph /  6.9km/h 4.3mph /  6.9km/h 86% 0in /  0.0mm
21:15 34.5 °F /  1.4 °C 30.2 °F /  -1.0 °C 30in /  1016.8hPa SSW 4.3mph /  6.9km/h 4.3mph /  6.9km/h 86% 0in /  0.0mm
21:20 34.5 °F /  1.4 °C 32 °F /  0.0 °C 30in /  1016.8hPa SSW 4.3mph /  6.9km/h 4.3mph /  6.9km/h 87% 0in /  0.0mm
21:25 34.3 °F /  1.3 °C 32 °F /  0.0 °C 30in /  1016.8hPa SSW 4.3mph /  6.9km/h 4.3mph /  6.9km/h 87% 0in /  0.0mm
21:30 34.3 °F /  1.3 °C 32 °F /  0.0 °C 30in /  1016.8hPa SSW 4.3mph /  6.9km/h 4.3mph /  6.9km/h 87% 0in /  0.0mm
21:35 34.2 °F /  1.2 °C 32 °F /  0.0 °C 30in /  1016.8hPa SSW 4.3mph /  6.9km/h 4.3mph /  6.9km/h 87% 0in /  0.0mm
21:40 34.2 °F /  1.2 °C 32 °F /  0.0 °C 30in /  1016.8hPa SSW 4.3mph /  6.9km/h 4.3mph /  6.9km/h 88% 0in /  0.0mm
21:45 34.2 °F /  1.2 °C 32 °F /  0.0 °C 30in /  1016.8hPa SSW 4.3mph /  6.9km/h 4.3mph /  6.9km/h 88% 0in /  0.0mm
21:50 34.2 °F /  1.2 °C 32 °F /  0.0 °C 30in /  1016.8hPa SSW 4.3mph /  6.9km/h 4.3mph /  6.9km/h 88% 0in /  0.0mm
21:55 34.2 °F /  1.2 °C 32 °F /  0.0 °C 30in /  1016.8hPa SSW 4.3mph /  6.9km/h 4.3mph /  6.9km/h 88% 0in /  0.0mm
22:00 34 °F /  1.1 °C 30.2 °F /  -1.0 °C 30in /  1016.8hPa SSW 4.3mph /  6.9km/h 4.3mph /  6.9km/h 88% 0in /  0.0mm
22:05 34 °F /  1.1 °C 30.2 °F /  -1.0 °C 30in /  1016.8hPa SSW 4.3mph /  6.9km/h 4.3mph /  6.9km/h 88% 0in /  0.0mm
22:11 34 °F /  1.1 °C 30.2 °F /  -1.0 °C 30in /  1016.8hPa SSW 4.3mph /  6.9km/h 4.3mph /  6.9km/h 88% 0in /  0.0mm
22:16 34 °F /  1.1 °C 30.2 °F /  -1.0 °C 30in /  1016.8hPa SSW 4.3mph /  6.9km/h 4.3mph /  6.9km/h 88% 0in /  0.0mm
22:21 33.8 °F /  1.0 °C 30.2 °F /  -1.0 °C 30in /  1016.8hPa SSW 3.8mph /  6.1km/h 3.8mph /  6.1km/h 88% 0in /  0.0mm
22:26 33.8 °F /  1.0 °C 30.2 °F /  -1.0 °C 30in /  1016.8hPa SSW 8.5mph /  13.7km/h 8.5mph /  13.7km/h 88% 0in /  0.0mm
22:31 33.8 °F /  1.0 °C 30.2 °F /  -1.0 °C 30in /  1016.8hPa SSW 4.3mph /  6.9km/h 8.5mph /  13.7km/h 88% 0in /  0.0mm
22:36 33.8 °F /  1.0 °C 30.2 °F /  -1.0 °C 30in /  1016.8hPa South 5.8mph /  9.3km/h 8.5mph /  13.7km/h 88% 0in /  0.0mm
22:41 33.8 °F /  1.0 °C 30.2 °F /  -1.0 °C 30in /  1016.8hPa South 3.6mph /  5.8km/h 6.5mph /  10.5km/h 88% 0in /  0.0mm
22:46 33.8 °F /  1.0 °C 30.2 °F /  -1.0 °C 30in /  1016.8hPa South 8.1mph /  13.0km/h 8.1mph /  13.0km/h 88% 0in /  0.0mm
22:51 33.8 °F /  1.0 °C 30.2 °F /  -1.0 °C 30in /  1016.8hPa South 8.1mph /  13.0km/h 8.1mph /  13.0km/h 88% 0in /  0.0mm
22:56 33.8 °F /  1.0 °C 30.2 °F /  -1.0 °C 30in /  1016.8hPa South 7.8mph /  12.6km/h 8.1mph /  13.0km/h 88% 0in /  0.0mm
23:01 33.6 °F /  0.9 °C 30.2 °F /  -1.0 °C 30in /  1016.8hPa SSW 5.6mph /  9.0km/h 8.1mph /  13.0km/h 88% 0in /  0.0mm
23:06 33.6 °F /  0.9 °C 30.2 °F /  -1.0 °C 30in /  1016.8hPa SSW 7.4mph /  11.9km/h 7.8mph /  12.6km/h 88% 0in /  0.0mm
23:12 33.6 °F /  0.9 °C 30.2 °F /  -1.0 °C 30in /  1016.8hPa SSE 8.1mph /  13.0km/h 8.1mph /  13.0km/h 88% 0in /  0.0mm
23:17 33.6 °F /  0.9 °C 30.2 °F /  -1.0 °C 30in /  1016.1hPa SSW 10.3mph /  16.6km/h 10.3mph /  16.6km/h 88% 0in /  0.0mm
23:22 33.6 °F /  0.9 °C 30.2 °F /  -1.0 °C 30in /  1016.1hPa SSW 4.3mph /  6.9km/h 10.3mph /  16.6km/h 88% 0in /  0.0mm
23:27 33.4 °F /  0.8 °C 30.2 °F /  -1.0 °C 30in /  1016.1hPa SSW 5.8mph /  9.3km/h 10.3mph /  16.6km/h 88% 0in /  0.0mm
23:32 33.4 °F /  0.8 °C 30.2 °F /  -1.0 °C 30in /  1016.1hPa South 6.5mph /  10.5km/h 8.7mph /  14.0km/h 88% 0in /  0.0mm
23:37 33.4 °F /  0.8 °C 30.2 °F /  -1.0 °C 30in /  1016.1hPa SSW 3.6mph /  5.8km/h 7.8mph /  12.6km/h 87% 0in /  0.0mm
23:42 33.3 °F /  0.7 °C 30.2 °F /  -1.0 °C 30in /  1016.1hPa SSW 5.4mph /  8.7km/h 7.2mph /  11.6km/h 87% 0in /  0.0mm
23:47 33.3 °F /  0.7 °C 30.2 °F /  -1.0 °C 30in /  1015.1hPa SSW 5.4mph /  8.7km/h 7.2mph /  11.6km/h 87% 0in /  0.0mm
23:52 33.3 °F /  0.7 °C 30.2 °F /  -1.0 °C 30in /  1015.1hPa SSW 5.4mph /  8.7km/h 5.4mph /  8.7km/h 87% 0in /  0.0mm
23:57 33.3 °F /  0.7 °C 30.2 °F /  -1.0 °C 30in /  1015.1hPa SSW 5.4mph /  8.7km/h 5.4mph /  8.7km/h 87% 0in /  0.0mm
Données Historique de Météo Turbie

Mise a jour : 18/06/2018 01:51:13
Généré par Cumulus 1.9.4 (1099)